Time;durP1;ratioP1;P1;durP2;ratioP2;P2;SDS_P1;SDS_P2;PMS_P1;PMS_P2;Temp;Humidity;BMP_temperature;BMP_pressure;BME280_temperature;BME280_humidity;BME280_pressure;Samples;Min_cycle;Max_cycle;Signal;HPM_P1;HPM_P2
2022/05/03 00:02:51;;;;;;;32.10;16.60;;;;;;;16.25;42.78;98848.23;233402;1217;138760;-61
2022/05/03 00:08:11;;;;;;;25.90;17.00;;;;;;;16.20;43.04;98846.70;233321;1217;139080;-61
2022/05/03 00:13:19;;;;;;;23.80;16.20;;;;;;;16.13;43.15;98836.95;233315;1217;139197;-61
2022/05/03 00:18:23;;;;;;;24.60;15.90;;;;;;;16.06;43.19;98834.05;233317;1217;139095;-61
2022/05/03 00:23:26;;;;;;;24.30;15.70;;;;;;;15.94;43.47;98836.45;233248;1217;140582;-61
2022/05/03 00:28:30;;;;;;;21.40;14.90;;;;;;;15.84;43.68;98832.70;233136;1217;138677;-63
2022/05/03 00:33:33;;;;;;;24.50;15.40;;;;;;;15.78;43.74;98833.78;233470;1217;139556;-64
2022/05/03 00:38:37;;;;;;;28.50;15.70;;;;;;;15.70;43.90;98832.11;233307;1217;139965;-63
2022/05/03 00:50:05;;;;;;;27.30;15.80;;;;;;;15.55;44.42;98829.31;233345;1217;139940;-63
2022/05/03 00:55:46;;;;;;;22.40;15.50;;;;;;;15.45;44.49;98830.17;233378;1217;139180;-63
2022/05/03 01:01:21;;;;;;;24.10;15.60;;;;;;;15.34;44.75;98831.03;233316;1217;139910;-61
2022/05/03 01:06:37;;;;;;;22.00;16.10;;;;;;;15.26;44.98;98831.55;233310;1217;139126;-61
2022/05/03 01:11:47;;;;;;;20.90;15.90;;;;;;;15.16;45.21;98829.38;233206;1218;139390;-61
2022/05/03 01:16:59;;;;;;;24.70;17.10;;;;;;;15.06;45.24;98834.67;233394;1219;141930;-64
2022/05/03 01:22:29;;;;;;;23.70;16.30;;;;;;;15.05;45.55;98834.93;233463;1217;139488;-62
2022/05/03 01:27:46;;;;;;;25.10;16.50;;;;;;;15.05;45.41;98830.90;233309;1217;138875;-64
2022/05/03 01:33:02;;;;;;;26.20;16.90;;;;;;;15.04;45.47;98828.77;233284;1217;139576;-64
2022/05/03 01:38:43;;;;;;;31.30;17.90;;;;;;;15.00;45.67;98833.38;233210;1217;139076;-63
2022/05/03 01:43:59;;;;;;;30.20;18.80;;;;;;;14.99;46.03;98832.63;233381;1217;140010;-62
2022/05/03 01:55:14;;;;;;;26.30;16.90;;;;;;;15.05;46.26;98839.62;233337;1217;139400;-60
2022/05/03 02:00:21;;;;;;;29.30;20.10;;;;;;;15.03;46.34;98839.05;233183;1217;138936;-62
2022/05/03 02:05:45;;;;;;;25.70;18.80;;;;;;;15.02;46.19;98835.91;233303;1217;138711;-61
2022/05/03 02:11:06;;;;;;;31.20;19.60;;;;;;;15.01;46.16;98833.01;233250;1217;139308;-60
2022/05/03 02:16:09;;;;;;;33.70;19.00;;;;;;;14.99;46.09;98836.23;233353;1217;139034;-60
2022/05/03 02:21:21;;;;;;;31.50;19.80;;;;;;;14.98;46.22;98839.09;233300;1217;139212;-62
2022/05/03 02:26:39;;;;;;;27.00;17.90;;;;;;;14.99;46.31;98831.94;233377;1217;139412;-61
2022/05/03 02:31:49;;;;;;;26.10;18.60;;;;;;;15.01;46.23;98824.95;233329;1217;139010;-61
2022/05/03 02:36:58;;;;;;;29.30;19.50;;;;;;;14.98;46.14;98822.89;233593;1217;138856;-61
2022/05/03 02:42:02;;;;;;;32.40;20.80;;;;;;;14.98;46.24;98824.19;233437;1217;138936;-63
2022/05/03 02:47:09;;;;;;;29.50;20.10;;;;;;;15.00;46.24;98816.98;233321;1219;139497;-62
2022/05/03 02:53:01;;;;;;;30.60;21.10;;;;;;;15.01;46.29;98815.77;233383;1217;139208;-60
2022/05/03 02:58:09;;;;;;;32.10;20.80;;;;;;;15.07;46.34;98812.64;233328;1217;139089;-61
2022/05/03 03:03:39;;;;;;;31.20;21.80;;;;;;;15.10;46.34;98809.85;233387;1217;139758;-60
2022/05/03 03:08:44;;;;;;;28.70;20.20;;;;;;;15.13;46.49;98810.20;233298;1217;140701;-60
2022/05/03 03:14:10;;;;;;;28.00;20.30;;;;;;;15.08;46.52;98824.73;233291;1220;139904;-59
2022/05/03 03:19:28;;;;;;;;;;;;;;;15.01;46.69;98826.92;233462;1217;139583;-59
2022/05/03 03:24:34;;;;;;;33.30;21.90;;;;;;;14.94;46.68;98826.02;233388;1219;125765;-61
2022/05/03 03:29:39;;;;;;;34.40;22.70;;;;;;;14.89;46.70;98827.70;233293;1217;139489;-60
2022/05/03 03:34:42;;;;;;;38.10;23.30;;;;;;;14.88;46.70;98827.80;233463;1217;138870;-60
2022/05/03 03:39:45;;;;;;;33.50;22.90;;;;;;;14.85;46.74;98826.04;233417;1218;138551;-60
2022/05/03 03:44:51;;;;;;;34.50;22.50;;;;;;;14.86;46.91;98830.45;233327;1219;139504;-63
2022/05/03 03:49:56;;;;;;;33.10;21.90;;;;;;;14.84;46.77;98834.73;233233;1217;139620;-61
2022/05/03 03:55:00;;;;;;;35.20;22.70;;;;;;;14.77;46.77;98838.55;233315;1217;143807;-60
2022/05/03 04:00:12;;;;;;;34.60;23.50;;;;;;;14.70;46.90;98845.88;233463;1217;139291;-60
2022/05/03 04:05:20;;;;;;;33.20;23.00;;;;;;;14.75;46.92;98847.84;233199;1218;140379;-62
2022/05/03 04:10:23;;;;;;;35.10;23.30;;;;;;;14.76;46.80;98850.81;233426;1217;138960;-64
2022/05/03 04:15:26;;;;;;;34.10;23.00;;;;;;;14.77;46.90;98845.68;233454;1217;139425;-63
2022/05/03 04:20:29;;;;;;;34.60;22.00;;;;;;;14.90;46.94;98847.11;233025;1217;139662;-63
2022/05/03 04:25:32;;;;;;;29.80;20.50;;;;;;;14.98;46.83;98844.63;233487;1217;142458;-62
2022/05/03 04:30:36;;;;;;;29.50;20.30;;;;;;;15.10;46.73;98855.80;232925;1217;140461;-62
2022/05/03 04:35:38;;;;;;;31.90;22.00;;;;;;;15.19;46.62;98860.63;233457;1217;140249;-62
2022/05/03 04:40:41;;;;;;;31.80;20.20;;;;;;;15.25;46.57;98860.77;233538;1217;138652;-60
2022/05/03 04:45:45;;;;;;;31.80;21.30;;;;;;;15.31;46.37;98857.80;233468;1217;139041;-60
2022/05/03 04:50:48;;;;;;;28.20;20.50;;;;;;;15.35;46.26;98849.80;233454;1217;140206;-57
2022/05/03 04:55:51;;;;;;;31.50;20.80;;;;;;;15.40;46.18;98857.59;233406;1217;139901;-60
2022/05/03 05:00:54;;;;;;;34.10;21.10;;;;;;;15.39;46.31;98858.71;233367;1217;139833;-59
2022/05/03 05:05:57;;;;;;;32.10;20.70;;;;;;;15.47;46.49;98869.33;233498;1217;138887;-60
2022/05/03 05:11:00;;;;;;;31.20;21.00;;;;;;;15.58;46.44;98863.86;233270;1217;138738;-62
2022/05/03 05:16:04;;;;;;;29.40;20.00;;;;;;;15.63;46.32;98853.44;233258;1217;139448;-60
2022/05/03 05:21:07;;;;;;;27.40;20.20;;;;;;;15.80;46.40;98855.09;233501;1217;141225;-62
2022/05/03 05:26:11;;;;;;;30.10;20.50;;;;;;;15.90;46.15;98855.84;233192;1217;138750;-62
2022/05/03 05:31:15;;;;;;;26.70;19.30;;;;;;;15.89;46.12;98854.96;233204;1217;139389;-61
2022/05/03 05:36:18;;;;;;;30.50;20.60;;;;;;;15.93;46.26;98856.08;233305;1217;139463;-60
2022/05/03 05:41:21;;;;;;;30.30;20.50;;;;;;;16.04;46.27;98847.79;233392;1217;139122;-61
2022/05/03 05:46:24;;;;;;;56.90;45.00;;;;;;;16.17;46.34;98845.42;233533;1216;140418;-60
2022/05/03 05:51:27;;;;;;;28.30;20.80;;;;;;;16.45;46.26;98846.08;233399;1217;139042;-64
2022/05/03 05:56:30;;;;;;;27.70;20.50;;;;;;;16.56;46.03;98839.73;233434;1217;139188;-63
2022/05/03 06:01:41;;;;;;;33.00;21.20;;;;;;;16.67;45.80;98829.64;233299;1217;139078;-63
2022/05/03 06:06:44;;;;;;;63.30;50.00;;;;;;;16.89;45.82;98837.34;233352;1220;138718;-63
2022/05/03 06:11:47;;;;;;;30.50;21.60;;;;;;;17.12;45.84;98837.89;233284;1217;139304;-65
2022/05/03 06:16:55;;;;;;;28.90;21.50;;;;;;;17.29;45.43;98842.50;233363;1217;139617;-64
2022/05/03 06:21:58;;;;;;;31.30;20.60;;;;;;;17.45;45.62;98835.35;233073;1217;138844;-63
2022/05/03 06:27:02;;;;;;;27.60;19.60;;;;;;;17.65;45.48;98838.69;233317;1217;139066;-65
2022/05/03 06:32:05;;;;;;;31.00;21.00;;;;;;;17.80;44.99;98849.18;233350;1217;138789;-65
2022/05/03 06:37:08;;;;;;;26.40;20.30;;;;;;;17.87;45.03;98844.89;233408;1217;139047;-64
2022/05/03 06:42:11;;;;;;;52.30;41.40;;;;;;;17.87;44.81;98851.89;233418;1217;139368;-62
2022/05/03 06:47:14;;;;;;;28.50;20.10;;;;;;;17.89;44.42;98856.16;233217;1217;138724;-61
2022/05/03 06:52:18;;;;;;;28.10;20.30;;;;;;;17.97;44.45;98856.14;233380;1219;139201;-62
2022/05/03 06:57:21;;;;;;;28.50;20.70;;;;;;;18.04;44.38;98861.40;233375;1217;138922;-61
2022/05/03 07:02:24;;;;;;;29.20;19.60;;;;;;;18.09;44.23;98864.02;233119;1217;138735;-61
2022/05/03 07:07:30;;;;;;;;;;;;;;;18.07;44.24;98851.92;233322;1217;139560;-61
2022/05/03 07:12:33;;;;;;;25.80;18.60;;;;;;;18.16;44.06;98854.52;233423;1217;125234;-61
2022/05/03 07:22:58;;;;;;;23.70;18.80;;;;;;;18.43;43.93;98861.23;233305;1217;140582;-62
2022/05/03 07:28:01;;;;;;;188.20;136.00;;;;;;;18.61;43.99;98857.98;233226;1220;139287;-60
2022/05/03 07:33:04;;;;;;;31.50;23.40;;;;;;;18.85;43.91;98854.30;233264;1218;139222;-63
2022/05/03 07:38:08;;;;;;;26.90;16.90;;;;;;;19.07;43.51;98850.44;233120;1217;139251;-66
2022/05/03 07:43:11;;;;;;;19.00;15.30;;;;;;;19.33;43.19;98855.44;233195;1217;138907;-61
2022/05/03 07:48:14;;;;;;;19.90;14.30;;;;;;;19.50;42.65;98860.10;233364;1217;139080;-63
2022/05/03 07:53:17;;;;;;;20.40;14.90;;;;;;;19.65;42.21;98854.08;233287;1217;142219;-63
2022/05/03 07:58:21;;;;;;;21.70;13.70;;;;;;;19.88;42.08;98855.89;233309;1217;139009;-62
2022/05/03 08:03:25;;;;;;;21.00;14.80;;;;;;;20.11;41.53;98856.91;232793;1217;138509;-59
2022/05/03 08:08:28;;;;;;;16.00;13.00;;;;;;;20.18;41.22;98852.39;233312;1217;139282;-61
2022/05/03 08:13:34;;;;;;;20.70;14.30;;;;;;;20.30;40.79;98858.48;233066;1219;139949;-59
2022/05/03 08:18:37;;;;;;;18.60;12.90;;;;;;;20.38;40.48;98858.91;233256;1217;138961;-60
2022/05/03 08:23:41;;;;;;;19.60;13.60;;;;;;;20.47;40.20;98854.90;233284;1219;138968;-62
2022/05/03 08:28:45;;;;;;;21.70;13.20;;;;;;;20.63;40.01;98861.02;233379;1217;138874;-63
2022/05/03 08:33:48;;;;;;;12.40;9.70;;;;;;;20.71;39.64;98863.92;233255;1217;138503;-59
2022/05/03 08:44:13;;;;;;;16.50;11.20;;;;;;;20.81;39.12;98864.27;233476;1217;139237;-60
2022/05/03 08:49:17;;;;;;;15.80;11.60;;;;;;;20.90;39.07;98871.25;232833;1217;138614;-63
2022/05/03 08:54:25;;;;;;;13.90;10.40;;;;;;;20.90;38.84;98863.88;233210;1217;138835;-64
2022/05/03 08:59:32;;;;;;;45.30;37.20;;;;;;;21.03;39.13;98863.40;233431;1217;138685;-63
2022/05/03 09:04:35;;;;;;;19.20;15.10;;;;;;;21.21;38.80;98864.27;233259;1217;138522;-60
2022/05/03 09:09:39;;;;;;;21.80;16.60;;;;;;;21.32;39.10;98866.50;233187;1217;138487;-65
2022/05/03 09:14:42;;;;;;;24.50;17.20;;;;;;;21.45;39.37;98866.76;233251;1217;139449;-62
2022/05/03 09:19:45;;;;;;;23.40;15.30;;;;;;;21.62;39.90;98862.77;233296;1217;139662;-63
2022/05/03 09:25:01;;;;;;;21.80;16.50;;;;;;;21.84;39.88;98861.33;233278;1217;139271;-63
2022/05/03 09:30:09;;;;;;;12.30;9.40;;;;;;;22.11;39.47;98863.95;233428;1217;138653;-64
2022/05/03 09:35:35;;;;;;;13.20;10.70;;;;;;;22.30;38.59;98859.42;233322;1217;139998;-60
2022/05/03 09:40:41;;;;;;;15.00;9.90;;;;;;;22.35;38.70;98848.39;233478;1217;138954;-59
2022/05/03 09:45:45;;;;;;;11.60;9.10;;;;;;;22.43;38.31;98846.36;233343;1217;139031;-62
2022/05/03 09:50:49;;;;;;;10.50;8.10;;;;;;;22.53;38.28;98838.38;233464;1217;138672;-62
2022/05/03 09:55:53;;;;;;;108.40;84.40;;;;;;;22.65;38.14;98837.10;233368;1217;138947;-59
2022/05/03 10:00:56;;;;;;;80.10;71.60;;;;;;;22.68;37.82;98835.77;233345;1217;139209;-60
2022/05/03 10:06:00;;;;;;;11.90;8.30;;;;;;;22.78;37.87;98836.39;233328;1217;139418;-61
2022/05/03 10:11:05;;;;;;;16.40;11.00;;;;;;;22.81;38.05;98838.74;232784;1217;140417;-60
2022/05/03 10:30:15;;;;;;;13.90;8.80;;;;;;;22.75;37.14;98823.55;232104;1216;139221;-60
2022/05/03 10:35:33;;;;;;;18.50;11.00;;;;;;;22.70;37.25;98825.42;231424;1217;139983;-61
2022/05/03 10:40:47;;;;;;;11.50;7.90;;;;;;;22.67;37.03;98823.23;232856;1217;139355;-63
2022/05/03 10:45:52;;;;;;;12.00;6.10;;;;;;;22.60;36.36;98820.89;233302;1218;138974;-61
2022/05/03 10:50:57;;;;;;;;;;;;;;;22.45;35.71;98817.16;233221;1217;138809;-61
2022/05/03 10:56:07;;;;;;;39.40;30.30;;;;;;;22.38;35.85;98807.08;233301;1217;125992;-61
2022/05/03 11:01:21;;;;;;;12.10;7.20;;;;;;;22.49;36.52;98810.22;233160;1217;139025;-63
2022/05/03 11:06:25;;;;;;;9.40;5.60;;;;;;;22.52;35.48;98801.35;233212;1217;139172;-63
2022/05/03 11:11:42;;;;;;;12.50;6.40;;;;;;;22.42;35.23;98804.86;233291;1217;139107;-64
2022/05/03 11:17:11;;;;;;;10.20;6.40;;;;;;;22.29;35.38;98809.66;233063;1217;139298;-61
2022/05/03 11:22:36;;;;;;;102.40;83.00;;;;;;;22.15;35.62;98803.27;233074;1217;139312;-62
2022/05/03 11:27:40;;;;;;;20.20;13.80;;;;;;;22.15;35.96;98800.05;232543;1217;139502;-62
2022/05/03 11:32:56;;;;;;;10.30;7.50;;;;;;;22.48;36.03;98793.55;233316;1217;139005;-62
2022/05/03 11:38:02;;;;;;;11.30;6.00;;;;;;;22.90;35.91;98793.52;233299;1217;138570;-62
2022/05/03 11:43:05;;;;;;;;;;;;;;;23.29;35.99;98789.29;233272;1217;139097;-62
2022/05/03 11:48:08;;;;;;;9.00;7.20;;;;;;;23.20;35.78;98789.11;233356;1217;126242;-62
2022/05/03 11:58:40;;;;;;;9.60;6.30;;;;;;;22.66;35.50;98786.80;233158;1217;138769;-62
2022/05/03 12:03:49;;;;;;;9.10;5.80;;;;;;;22.45;35.32;98784.89;233355;1217;138389;-62
2022/05/03 12:08:52;;;;;;;12.90;5.30;;;;;;;22.43;35.51;98781.23;233383;1217;139201;-62
2022/05/03 12:13:55;;;;;;;12.70;6.00;;;;;;;22.60;35.53;98777.64;233210;1217;139128;-62
2022/05/03 12:19:00;;;;;;;9.80;6.20;;;;;;;22.91;35.62;98773.74;233516;1217;139487;-62
2022/05/03 12:24:07;;;;;;;9.80;5.90;;;;;;;23.22;35.25;98773.52;233321;1217;139515;-62
2022/05/03 12:29:12;;;;;;;11.00;5.90;;;;;;;23.32;34.96;98764.33;233406;1217;141076;-62
2022/05/03 12:34:22;;;;;;;8.50;5.40;;;;;;;23.18;34.45;98770.52;233294;1217;138765;-63
2022/05/03 12:39:25;;;;;;;14.30;5.20;;;;;;;23.23;34.73;98761.01;233414;1215;139464;-62
2022/05/03 12:44:30;;;;;;;8.20;4.60;;;;;;;23.62;34.88;98759.48;233297;1217;138867;-62
2022/05/03 12:49:34;;;;;;;9.40;5.10;;;;;;;23.97;34.66;98751.80;233358;1218;138916;-62
2022/05/03 12:54:41;;;;;;;8.00;5.50;;;;;;;24.29;34.23;98747.00;233252;1217;139835;-62
2022/05/03 12:59:44;;;;;;;26.60;17.80;;;;;;;24.48;33.78;98748.39;233362;1217;139327;-62
2022/05/03 13:04:47;;;;;;;10.00;6.50;;;;;;;24.43;33.05;98739.41;233244;1217;139344;-62
2022/05/03 13:09:50;;;;;;;12.50;7.50;;;;;;;24.21;32.77;98730.27;233354;1217;139582;-62
2022/05/03 13:14:55;;;;;;;10.90;7.60;;;;;;;24.04;32.96;98736.46;233295;1217;138894;-61
2022/05/03 13:19:58;;;;;;;11.00;6.80;;;;;;;23.83;32.76;98732.49;233164;1219;138897;-62
2022/05/03 13:25:01;;;;;;;8.60;6.50;;;;;;;23.59;32.68;98737.77;233153;1217;139095;-63
2022/05/03 13:30:05;;;;;;;10.10;7.30;;;;;;;23.33;32.55;98727.66;233352;1217;138706;-62
2022/05/03 13:35:09;;;;;;;7.40;5.40;;;;;;;23.11;32.85;98724.48;233361;1217;139899;-62
2022/05/03 13:40:31;;;;;;;9.20;5.60;;;;;;;22.91;33.39;98730.52;233131;1218;138950;-62
2022/05/03 13:45:34;;;;;;;10.10;5.30;;;;;;;22.80;33.63;98735.05;233165;1217;138956;-61
2022/05/03 13:50:57;;;;;;;138.20;108.40;;;;;;;22.75;33.76;98723.09;233260;1217;138678;-62
2022/05/03 13:56:01;;;;;;;16.80;14.00;;;;;;;22.93;33.97;98715.07;233023;1217;139611;-62
2022/05/03 14:01:05;;;;;;;9.10;6.30;;;;;;;23.27;33.89;98712.43;233242;1217;139457;-60
2022/05/03 14:06:09;;;;;;;10.00;6.90;;;;;;;23.83;33.85;98717.11;233212;1217;138496;-62
2022/05/03 14:11:12;;;;;;;6.80;5.10;;;;;;;24.01;33.62;98712.49;233371;1217;138927;-62
2022/05/03 14:16:16;;;;;;;10.70;4.70;;;;;;;23.90;33.10;98720.92;233211;1215;139485;-61
2022/05/03 14:21:20;;;;;;;10.70;4.60;;;;;;;23.63;33.04;98716.09;233359;1217;138863;-62
2022/05/03 14:26:34;;;;;;;6.00;4.50;;;;;;;23.47;33.46;98721.70;233299;1217;140763;-62
2022/05/03 14:31:37;;;;;;;10.00;5.00;;;;;;;23.46;33.36;98712.20;233332;1217;139146;-63
2022/05/03 14:36:41;;;;;;;5.90;4.50;;;;;;;23.34;33.42;98721.47;233339;1217;139266;-64
2022/05/03 14:41:44;;;;;;;6.50;4.90;;;;;;;23.20;33.23;98723.77;233502;1217;138822;-66
2022/05/03 14:46:47;;;;;;;54.00;42.40;;;;;;;23.11;33.28;98724.85;233290;1217;138172;-65
2022/05/03 14:51:52;;;;;;;9.50;7.10;;;;;;;23.06;33.42;98721.36;233276;1219;139142;-62
2022/05/03 15:07:42;;;;;;;8.10;4.70;;;;;;;22.79;33.40;98733.17;233256;1217;138701;-63
2022/05/03 15:12:45;;;;;;;6.90;4.80;;;;;;;22.68;33.35;98727.59;233298;1217;139503;-63
2022/05/03 15:17:51;;;;;;;8.10;4.10;;;;;;;22.62;33.55;98735.27;233397;1217;138951;-63
2022/05/03 15:28:17;;;;;;;6.70;4.30;;;;;;;22.52;33.58;98738.09;233224;1217;138626;-62
2022/05/03 15:33:21;;;;;;;10.60;4.30;;;;;;;22.46;33.74;98734.38;233279;1217;139006;-62
2022/05/03 15:38:24;;;;;;;60.60;44.70;;;;;;;22.49;33.87;98731.77;233289;1217;138541;-63
2022/05/03 15:43:27;;;;;;;28.80;22.60;;;;;;;22.57;34.54;98737.19;233182;1219;139983;-63
2022/05/03 15:48:33;;;;;;;16.50;10.80;;;;;;;22.68;34.69;98730.23;233177;1219;140057;-63
2022/05/03 15:53:36;;;;;;;8.60;4.90;;;;;;;22.73;34.80;98719.71;233333;1218;139166;-63
2022/05/03 15:58:39;;;;;;;8.70;4.50;;;;;;;22.80;34.48;98731.16;233170;1219;139631;-63
2022/05/03 16:03:42;;;;;;;11.70;4.90;;;;;;;22.83;34.30;98733.04;233277;1217;139711;-63
2022/05/03 16:08:46;;;;;;;10.30;4.40;;;;;;;22.93;34.38;98736.27;233252;1217;138605;-66
2022/05/03 16:13:49;;;;;;;8.20;4.20;;;;;;;22.92;34.25;98736.86;233215;1217;138781;-64
2022/05/03 16:18:52;;;;;;;5.60;3.80;;;;;;;23.09;34.02;98734.29;233290;1217;138849;-63
2022/05/03 16:23:57;;;;;;;8.60;4.20;;;;;;;22.98;33.74;98730.17;233454;1217;139055;-63
2022/05/03 16:29:00;;;;;;;6.30;3.80;;;;;;;22.81;33.62;98734.21;233191;1217;138933;-65
2022/05/03 16:34:04;;;;;;;7.80;3.80;;;;;;;22.61;33.62;98731.27;233160;1217;138744;-65
2022/05/03 16:44:29;;;;;;;6.20;4.40;;;;;;;22.39;33.81;98741.27;233345;1218;138527;-63
2022/05/03 16:49:33;;;;;;;375.80;306.10;;;;;;;22.28;33.87;98745.05;233249;1217;139644;-63
2022/05/03 16:54:37;;;;;;;13.00;11.00;;;;;;;22.20;33.71;98747.63;233265;1217;141622;-64
2022/05/03 16:59:41;;;;;;;13.00;6.20;;;;;;;22.12;33.61;98747.42;233395;1217;139496;-64
2022/05/03 17:04:44;;;;;;;5.20;4.20;;;;;;;22.04;33.65;98749.48;233210;1217;138983;-64
2022/05/03 17:09:48;;;;;;;170.50;134.30;;;;;;;21.96;33.71;98755.17;233227;1217;139604;-64
2022/05/03 17:14:51;;;;;;;12.20;8.20;;;;;;;21.91;33.84;98752.73;233247;1217;139614;-63
2022/05/03 17:19:56;;;;;;;7.20;4.00;;;;;;;21.84;33.69;98760.36;233202;1217;139491;-62
2022/05/03 17:25:02;;;;;;;5.50;4.00;;;;;;;21.65;33.69;98768.34;233175;1217;138654;-63
2022/05/03 17:30:08;;;;;;;6.50;3.40;;;;;;;21.50;33.86;98772.13;233160;1217;139481;-64
2022/05/03 17:35:11;;;;;;;13.50;5.40;;;;;;;21.34;33.77;98773.67;233359;1217;139617;-63
2022/05/03 17:40:15;;;;;;;112.70;80.70;;;;;;;21.21;33.99;98782.91;233185;1217;139435;-63
2022/05/03 17:45:18;;;;;;;17.20;8.60;;;;;;;21.12;34.51;98788.24;233232;1217;138984;-64
2022/05/03 17:50:21;;;;;;;12.10;5.90;;;;;;;21.20;35.04;98788.55;233208;1217;139320;-63
2022/05/03 17:55:24;;;;;;;11.30;4.40;;;;;;;21.23;35.22;98791.70;233254;1217;139910;-64
2022/05/03 18:00:28;;;;;;;7.10;3.90;;;;;;;21.25;35.03;98797.65;233200;1217;139269;-63
2022/05/03 18:05:31;;;;;;;7.50;3.50;;;;;;;21.17;34.97;98803.95;233386;1217;139038;-63
2022/05/03 18:10:34;;;;;;;42.80;34.90;;;;;;;21.10;35.09;98811.27;233115;1217;141866;-63
2022/05/03 18:15:43;;;;;;;22.30;17.80;;;;;;;21.09;35.39;98817.07;233148;1218;139896;-63
2022/05/03 18:20:49;;;;;;;14.70;10.50;;;;;;;21.16;35.71;98822.60;233099;1218;138872;-63
2022/05/03 18:25:54;;;;;;;14.60;8.50;;;;;;;21.15;35.62;98828.34;233126;1219;139250;-63
2022/05/03 18:30:58;;;;;;;8.30;4.20;;;;;;;21.09;35.43;98835.50;232943;1219;139141;-63
2022/05/03 18:36:01;;;;;;;12.60;3.90;;;;;;;20.82;34.90;98837.14;233256;1219;139161;-64
2022/05/03 18:41:05;;;;;;;7.50;3.70;;;;;;;20.53;34.88;98844.05;233245;1219;139648;-61
2022/05/03 18:46:10;;;;;;;8.20;4.20;;;;;;;20.31;35.06;98844.23;233250;1218;138886;-62
2022/05/03 18:51:13;;;;;;;49.60;41.60;;;;;;;20.11;35.24;98857.24;233128;1219;138746;-60
2022/05/03 18:56:16;;;;;;;13.50;9.00;;;;;;;19.96;35.38;98858.50;233255;1220;139282;-61
2022/05/03 19:01:19;;;;;;;8.40;4.60;;;;;;;19.87;35.93;98868.98;233174;1219;140232;-63
2022/05/03 19:06:23;;;;;;;10.10;5.10;;;;;;;19.69;35.97;98875.46;233141;1217;138958;-61
2022/05/03 19:11:27;;;;;;;8.50;4.80;;;;;;;19.50;36.35;98880.97;233302;1217;140051;-62
2022/05/03 19:16:30;;;;;;;8.80;4.70;;;;;;;19.33;36.69;98880.73;233193;1217;138777;-62
2022/05/03 19:21:33;;;;;;;10.50;5.50;;;;;;;19.20;36.88;98882.26;233120;1217;139389;-62
2022/05/03 19:31:58;;;;;;;10.20;5.90;;;;;;;19.01;37.43;98893.48;233152;1217;138414;-61
2022/05/03 19:37:03;;;;;;;56.80;39.80;;;;;;;18.90;37.58;98887.89;233192;1217;139944;-62
2022/05/03 19:42:06;;;;;;;23.30;14.60;;;;;;;18.86;37.90;98894.09;233347;1217;139136;-62
2022/05/03 19:47:09;;;;;;;11.40;6.00;;;;;;;18.84;38.06;98899.83;233352;1218;139179;-62
2022/05/03 19:52:12;;;;;;;9.30;5.10;;;;;;;18.76;38.39;98903.89;233245;1217;140719;-62
2022/05/03 19:57:15;;;;;;;8.90;5.00;;;;;;;18.65;38.22;98904.34;233328;1217;138809;-62
2022/05/03 20:02:18;;;;;;;11.40;5.50;;;;;;;18.54;38.52;98909.07;233258;1217;139477;-63
2022/05/03 20:07:24;;;;;;;8.20;5.00;;;;;;;18.44;39.06;98913.23;233325;1217;138772;-61
2022/05/03 20:12:28;;;;;;;10.30;4.90;;;;;;;18.38;39.31;98915.58;233065;1217;139106;-62
2022/05/03 20:17:37;;;;;;;13.50;5.60;;;;;;;18.34;39.48;98922.84;232054;1217;139209;-61
2022/05/03 20:22:40;;;;;;;13.20;5.40;;;;;;;18.30;39.67;98929.67;232952;1217;138846;-60
2022/05/03 20:27:44;;;;;;;11.50;5.20;;;;;;;18.30;39.44;98934.67;233400;1217;139277;-62
2022/05/03 20:32:47;;;;;;;10.60;5.30;;;;;;;18.34;39.09;98942.05;232120;1217;138534;-61
2022/05/03 20:37:50;;;;;;;14.00;6.40;;;;;;;18.37;39.15;98946.54;232487;1217;139610;-60
2022/05/03 20:42:53;;;;;;;12.70;5.70;;;;;;;18.38;39.79;98949.92;233494;1217;139095;-60
2022/05/03 20:53:18;;;;;;;10.60;5.50;;;;;;;18.29;40.22;98961.16;233422;1217;138574;-61
2022/05/03 20:58:21;;;;;;;14.00;5.30;;;;;;;18.26;40.59;98958.75;233410;1217;139204;-60
2022/05/03 21:03:24;;;;;;;16.10;5.70;;;;;;;18.23;40.86;98964.31;233417;1217;138777;-59
2022/05/03 21:08:27;;;;;;;13.00;5.50;;;;;;;18.18;40.81;98972.23;233322;1217;138971;-60
2022/05/03 21:13:30;;;;;;;15.60;6.20;;;;;;;18.14;41.00;98970.48;233316;1217;139460;-59
2022/05/03 21:18:33;;;;;;;13.30;5.90;;;;;;;18.09;41.24;98970.98;233199;1217;138986;-60
2022/05/03 21:23:36;;;;;;;11.30;5.80;;;;;;;18.07;41.60;98968.85;233373;1217;138895;-60
2022/05/03 21:28:39;;;;;;;12.00;6.10;;;;;;;18.03;42.23;98968.90;233395;1217;140231;-61
2022/05/03 21:33:42;;;;;;;12.70;5.90;;;;;;;18.00;42.34;98972.21;233234;1219;139319;-61
2022/05/03 21:38:45;;;;;;;13.70;6.10;;;;;;;17.93;42.42;98970.51;233444;1217;139630;-60
2022/05/03 21:43:48;;;;;;;13.70;6.20;;;;;;;17.90;42.73;98973.90;233303;1217;139523;-60
2022/05/03 21:48:52;;;;;;;14.40;6.80;;;;;;;17.86;42.97;98979.77;233370;1217;138857;-59
2022/05/03 21:53:55;;;;;;;15.70;7.70;;;;;;;17.81;43.44;98989.80;233540;1217;139470;-60
2022/05/03 21:58:58;;;;;;;15.60;7.50;;;;;;;17.75;43.39;98989.05;233160;1217;139586;-60
2022/05/03 22:04:03;;;;;;;12.50;8.20;;;;;;;17.71;43.75;98991.36;233097;1217;139470;-61
2022/05/03 22:09:06;;;;;;;17.00;7.90;;;;;;;17.68;44.02;98995.64;233315;1217;141634;-60
2022/05/03 22:14:10;;;;;;;13.70;8.30;;;;;;;17.62;43.96;98995.81;233292;1217;138939;-59
2022/05/03 22:19:13;;;;;;;12.00;8.30;;;;;;;17.56;44.10;98998.48;233304;1217;139074;-60
2022/05/03 22:24:16;;;;;;;14.60;8.60;;;;;;;17.51;43.86;99000.73;233358;1217;139502;-60
2022/05/03 22:29:19;;;;;;;11.10;8.50;;;;;;;17.46;43.76;99005.45;233218;1217;138804;-60
2022/05/03 22:34:22;;;;;;;13.10;8.50;;;;;;;17.38;43.71;99001.23;233287;1217;140309;-59
2022/05/03 22:39:25;;;;;;;12.90;8.50;;;;;;;17.31;43.61;99001.33;233290;1217;138674;-59
2022/05/03 22:44:28;;;;;;;13.50;8.20;;;;;;;17.28;43.69;98997.69;233264;1217;139187;-61
2022/05/03 22:49:31;;;;;;;12.20;8.40;;;;;;;17.22;43.67;98993.37;233306;1217;138794;-60
2022/05/03 22:54:34;;;;;;;11.70;7.90;;;;;;;17.16;43.60;98997.85;233261;1217;138820;-61
2022/05/03 22:59:37;;;;;;;11.90;7.20;;;;;;;17.11;43.87;99005.63;233472;1217;138848;-61
2022/05/03 23:04:40;;;;;;;9.40;7.10;;;;;;;17.07;43.87;98994.55;233311;1217;139857;-61
2022/05/03 23:09:44;;;;;;;9.10;7.00;;;;;;;17.00;44.03;98999.61;233239;1217;138899;-62
2022/05/03 23:14:47;;;;;;;10.60;6.80;;;;;;;16.96;43.91;99000.14;233374;1217;139016;-63
2022/05/03 23:19:50;;;;;;;12.80;6.40;;;;;;;16.93;43.78;99002.08;233229;1217;139167;-61
2022/05/03 23:24:54;;;;;;;9.30;6.50;;;;;;;16.91;43.83;99001.73;233348;1217;138740;-62
2022/05/03 23:29:56;;;;;;;8.30;5.70;;;;;;;16.91;43.70;99000.44;233557;1217;138297;-61
2022/05/03 23:35:06;;;;;;;10.50;5.60;;;;;;;16.90;43.57;99002.15;233328;1217;139072;-62
2022/05/03 23:40:11;;;;;;;7.50;6.00;;;;;;;16.88;43.41;99001.73;233343;1217;140128;-61
2022/05/03 23:50:36;;;;;;;8.30;5.80;;;;;;;16.79;43.35;98996.63;233371;1215;138842;-61
2022/05/03 23:55:39;;;;;;;11.00;6.40;;;;;;;16.71;43.70;99000.02;233385;1217;138732;-59
